Time;durP1;ratioP1;P1;durP2;ratioP2;P2;SDS_P1;SDS_P2;PMS_P1;PMS_P2;Temp;Humidity;BMP_temperature;BMP_pressure;BME280_temperature;BME280_humidity;BME280_pressure;Samples;Min_cycle;Max_cycle;Signal;HPM_P1;HPM_P2
2023/05/21 00:02:03;;;;;;;72.57;68.35;;;;;;;;;;4980356;28;20395;-61
2023/05/21 00:04:30;;;;;;;66.72;62.47;;;;;;;;;;4985140;28;20420;-62
2023/05/21 00:06:56;;;;;;;67.90;63.50;;;;;;;;;;4982056;28;20026;-62
2023/05/21 00:09:21;;;;;;;57.80;53.67;;;;;;;;;;4980195;28;20389;-61
2023/05/21 00:11:46;;;;;;;67.72;63.67;;;;;;;;;;4979994;28;20402;-62
2023/05/21 00:14:12;;;;;;;50.00;46.60;;;;;;;;;;4985197;28;20042;-62
2023/05/21 00:16:37;;;;;;;70.80;66.50;;;;;;;;;;4983085;28;20049;-61
2023/05/21 00:19:03;;;;;;;78.03;73.25;;;;;;;;;;4981444;28;20062;-62
2023/05/21 00:21:30;;;;;;;82.47;77.53;;;;;;;;;;4980936;28;20045;-62
2023/05/21 00:23:59;;;;;;;72.68;68.32;;;;;;;;;;4981606;28;20053;-62
2023/05/21 00:26:24;;;;;;;68.40;64.35;;;;;;;;;;4979902;28;20069;-62
2023/05/21 00:28:52;;;;;;;78.28;73.50;;;;;;;;;;4985671;28;20045;-60
2023/05/21 00:31:18;;;;;;;77.45;72.68;;;;;;;;;;4981454;28;20054;-61
2023/05/21 00:33:43;;;;;;;75.85;71.35;;;;;;;;;;4982721;28;20035;-62
2023/05/21 00:36:13;;;;;;;75.47;71.03;;;;;;;;;;4981365;28;20482;-62
2023/05/21 00:38:45;;;;;;;71.82;67.45;;;;;;;;;;4996680;28;20542;-61
2023/05/21 00:41:10;;;;;;;75.70;71.05;;;;;;;;;;4980576;28;20039;-62
2023/05/21 00:43:39;;;;;;;72.88;68.53;;;;;;;;;;4980829;28;20038;-62
2023/05/21 00:46:05;;;;;;;66.47;62.05;;;;;;;;;;4980988;28;20112;-61
2023/05/21 00:48:31;;;;;;;48.00;44.38;;;;;;;;;;4982802;28;20033;-61
2023/05/21 00:50:57;;;;;;;70.40;65.88;;;;;;;;;;4982550;28;20030;-62
2023/05/21 00:53:22;;;;;;;54.90;50.83;;;;;;;;;;4980766;28;20049;-62
2023/05/21 00:55:49;;;;;;;56.28;52.22;;;;;;;;;;4978899;28;20543;-61
2023/05/21 00:58:16;;;;;;;51.40;47.65;;;;;;;;;;4977815;28;20069;-62
2023/05/21 01:00:42;;;;;;;63.28;58.97;;;;;;;;;;4980961;28;20096;-63
2023/05/21 01:03:07;;;;;;;58.35;54.17;;;;;;;;;;4980384;28;20027;-62
2023/05/21 01:05:33;;;;;;;54.10;50.10;;;;;;;;;;4982894;28;20030;-62
2023/05/21 01:07:59;;;;;;;47.85;44.10;;;;;;;;;;4979862;28;20033;-62
2023/05/21 01:10:25;;;;;;;58.55;54.05;;;;;;;;;;4981351;28;20532;-62
2023/05/21 01:12:51;;;;;;;50.80;46.78;;;;;;;;;;4983319;28;20054;-63
2023/05/21 01:15:17;;;;;;;64.20;59.97;;;;;;;;;;4985749;28;20030;-62
2023/05/21 01:17:44;;;;;;;65.30;60.95;;;;;;;;;;4980948;28;20089;-63
2023/05/21 01:20:10;;;;;;;43.90;40.55;;;;;;;;;;4983508;28;20485;-62
2023/05/21 01:22:40;;;;;;;65.78;61.38;;;;;;;;;;4985159;28;20037;-62
2023/05/21 01:25:06;;;;;;;43.33;40.03;;;;;;;;;;4986781;28;20034;-62
2023/05/21 01:27:31;;;;;;;50.90;47.00;;;;;;;;;;4967278;28;20034;-60
2023/05/21 01:29:57;;;;;;;58.85;54.88;;;;;;;;;;4980119;28;20053;-60
2023/05/21 01:32:58;;;;;;;51.78;47.85;;;;;;;;;;4980097;28;20030;-62
2023/05/21 01:35:34;;;;;;;37.17;33.95;;;;;;;;;;4944434;28;20053;-61
2023/05/21 01:38:11;;;;;;;51.10;47.38;;;;;;;;;;4946260;28;20224;-61
2023/05/21 01:40:43;;;;;;;53.15;49.42;;;;;;;;;;4944324;28;20039;-62
2023/05/21 01:43:09;;;;;;;41.03;37.58;;;;;;;;;;4930234;28;20047;-61
2023/05/21 01:45:36;;;;;;;47.22;43.75;;;;;;;;;;4944509;28;20039;-62
2023/05/21 01:48:02;;;;;;;52.28;48.45;;;;;;;;;;4924327;28;20110;-63
2023/05/21 01:50:28;;;;;;;54.33;50.38;;;;;;;;;;4944906;28;20446;-61
2023/05/21 01:52:59;;;;;;;48.20;44.33;;;;;;;;;;4946493;28;20047;-60
2023/05/21 01:55:25;;;;;;;41.30;37.75;;;;;;;;;;4944682;28;20058;-60
2023/05/21 01:57:54;;;;;;;42.92;39.40;;;;;;;;;;4945036;28;20070;-61
2023/05/21 02:00:21;;;;;;;50.10;45.95;;;;;;;;;;4944803;28;20222;-60
2023/05/21 02:02:47;;;;;;;59.63;54.95;;;;;;;;;;4931898;28;20090;-61
2023/05/21 02:05:13;;;;;;;56.97;53.15;;;;;;;;;;4947871;28;20039;-61
2023/05/21 02:07:39;;;;;;;48.60;44.75;;;;;;;;;;4948158;28;20040;-61
2023/05/21 02:10:05;;;;;;;46.47;42.50;;;;;;;;;;4961743;28;20050;-60
2023/05/21 02:12:32;;;;;;;39.20;35.50;;;;;;;;;;4983726;28;20442;-60
2023/05/21 02:14:59;;;;;;;46.92;43.03;;;;;;;;;;4984887;28;20039;-60
2023/05/21 02:17:25;;;;;;;52.35;48.30;;;;;;;;;;4987636;28;20070;-60
2023/05/21 02:19:51;;;;;;;55.08;50.92;;;;;;;;;;4986789;28;20608;-61
2023/05/21 02:22:17;;;;;;;49.22;45.22;;;;;;;;;;4987366;28;20037;-61
2023/05/21 02:24:43;;;;;;;43.10;39.47;;;;;;;;;;4989537;28;20422;-61
2023/05/21 02:27:09;;;;;;;49.55;45.58;;;;;;;;;;4988376;28;20026;-61
2023/05/21 02:29:37;;;;;;;47.97;43.67;;;;;;;;;;4986036;28;20050;-60
2023/05/21 02:32:03;;;;;;;48.13;44.13;;;;;;;;;;4981370;28;20043;-60
2023/05/21 02:34:31;;;;;;;39.65;36.08;;;;;;;;;;4986496;28;20081;-60
2023/05/21 02:36:57;;;;;;;31.60;28.63;;;;;;;;;;4986575;28;20189;-62
2023/05/21 02:39:23;;;;;;;53.05;49.05;;;;;;;;;;4991906;28;20411;-60
2023/05/21 02:41:49;;;;;;;50.42;46.72;;;;;;;;;;4986661;28;20501;-61
2023/05/21 02:44:14;;;;;;;39.85;36.42;;;;;;;;;;4990953;28;20050;-60
2023/05/21 02:46:39;;;;;;;48.25;44.50;;;;;;;;;;4983034;28;20042;-61
2023/05/21 02:49:05;;;;;;;39.30;36.10;;;;;;;;;;4989666;28;20080;-61
2023/05/21 02:51:31;;;;;;;52.47;48.40;;;;;;;;;;4984579;28;20059;-61
2023/05/21 02:53:56;;;;;;;36.35;32.92;;;;;;;;;;4982242;28;20558;-60
2023/05/21 02:56:22;;;;;;;32.92;29.40;;;;;;;;;;4981693;28;20054;-60
2023/05/21 02:58:47;;;;;;;40.08;36.47;;;;;;;;;;4985302;28;20104;-60
2023/05/21 03:01:13;;;;;;;35.92;32.80;;;;;;;;;;4983134;28;20046;-61
2023/05/21 03:03:38;;;;;;;40.95;36.90;;;;;;;;;;4986625;28;20049;-61
2023/05/21 03:06:08;;;;;;;31.52;28.42;;;;;;;;;;4985578;28;20054;-61
2023/05/21 03:08:36;;;;;;;29.75;26.60;;;;;;;;;;4987643;28;20030;-61
2023/05/21 03:11:02;;;;;;;38.28;34.88;;;;;;;;;;4982012;28;20101;-61
2023/05/21 03:13:27;;;;;;;32.72;29.65;;;;;;;;;;4988728;28;20069;-61
2023/05/21 03:15:56;;;;;;;36.08;32.88;;;;;;;;;;4983204;28;20132;-62
2023/05/21 03:18:22;;;;;;;30.25;27.33;;;;;;;;;;4982210;28;20058;-62
2023/05/21 03:20:47;;;;;;;27.98;25.17;;;;;;;;;;4978409;28;20038;-62
2023/05/21 03:23:14;;;;;;;38.05;34.15;;;;;;;;;;4983710;28;20046;-61
2023/05/21 03:25:40;;;;;;;34.88;31.52;;;;;;;;;;4985762;28;20140;-62
2023/05/21 03:28:06;;;;;;;34.08;30.90;;;;;;;;;;4984431;28;20512;-61
2023/05/21 03:30:48;;;;;;;28.65;25.67;;;;;;;;;;4978461;28;20042;-62
2023/05/21 03:33:28;;;;;;;35.20;31.98;;;;;;;;;;4981842;28;20047;-61
2023/05/21 03:35:54;;;;;;;31.17;27.10;;;;;;;;;;4973144;28;20046;-62
2023/05/21 03:38:21;;;;;;;26.55;23.77;;;;;;;;;;4987948;28;20031;-62
2023/05/21 03:40:48;;;;;;;26.85;24.10;;;;;;;;;;4984621;28;20414;-62
2023/05/21 03:43:14;;;;;;;29.27;25.00;;;;;;;;;;4990625;28;20038;-61
2023/05/21 03:45:40;;;;;;;35.28;31.77;;;;;;;;;;4972823;28;20046;-61
2023/05/21 03:48:39;;;;;;;30.77;27.52;;;;;;;;;;4986883;28;20133;-62
2023/05/21 03:51:09;;;;;;;30.95;26.98;;;;;;;;;;5001630;28;20112;-61
2023/05/21 03:53:36;;;;;;;29.88;27.00;;;;;;;;;;4985647;28;20082;-63
2023/05/21 03:56:04;;;;;;;29.05;26.10;;;;;;;;;;4985906;28;20072;-63
2023/05/21 03:58:31;;;;;;;27.13;24.27;;;;;;;;;;4989774;28;20034;-62
2023/05/21 04:00:57;;;;;;;30.65;24.70;;;;;;;;;;4990246;28;20038;-62
2023/05/21 04:03:23;;;;;;;25.42;22.67;;;;;;;;;;4985646;28;20465;-62
2023/05/21 04:05:48;;;;;;;29.05;26.00;;;;;;;;;;4983059;28;20042;-61
2023/05/21 04:08:14;;;;;;;29.25;26.35;;;;;;;;;;4997142;28;20080;-62
2023/05/21 04:10:40;;;;;;;27.95;21.13;;;;;;;;;;4984712;28;20153;-62
2023/05/21 04:13:05;;;;;;;24.30;20.95;;;;;;;;;;4983328;28;20038;-62
2023/05/21 04:15:31;;;;;;;23.48;21.00;;;;;;;;;;4983081;28;20445;-62
2023/05/21 04:17:57;;;;;;;26.52;23.90;;;;;;;;;;4981079;28;20073;-62
2023/05/21 04:20:22;;;;;;;19.88;17.75;;;;;;;;;;4972584;28;20042;-61
2023/05/21 04:22:48;;;;;;;23.60;20.70;;;;;;;;;;4979839;28;20132;-62
2023/05/21 04:25:14;;;;;;;24.02;21.48;;;;;;;;;;4981914;28;20049;-61
2023/05/21 04:27:41;;;;;;;21.88;19.67;;;;;;;;;;4979822;28;20035;-62
2023/05/21 04:30:08;;;;;;;24.13;20.25;;;;;;;;;;4996228;28;20104;-62
2023/05/21 04:32:35;;;;;;;26.63;20.27;;;;;;;;;;4996497;28;20035;-61
2023/05/21 04:35:00;;;;;;;23.52;19.30;;;;;;;;;;4998229;28;20440;-62
2023/05/21 04:37:26;;;;;;;23.48;17.35;;;;;;;;;;4985164;28;20042;-61
2023/05/21 04:39:55;;;;;;;19.00;16.83;;;;;;;;;;4985179;28;20050;-61
2023/05/21 04:42:22;;;;;;;20.55;17.10;;;;;;;;;;4982205;28;20034;-62
2023/05/21 04:44:48;;;;;;;20.67;16.83;;;;;;;;;;4996203;28;20034;-62
2023/05/21 04:47:13;;;;;;;21.52;17.80;;;;;;;;;;4981490;28;20049;-62
2023/05/21 04:49:39;;;;;;;23.63;19.02;;;;;;;;;;4971370;28;20145;-62
2023/05/21 04:52:04;;;;;;;21.45;15.55;;;;;;;;;;4979502;28;20509;-61
2023/05/21 04:54:30;;;;;;;25.75;18.70;;;;;;;;;;4981245;28;20047;-62
2023/05/21 04:56:56;;;;;;;22.98;19.42;;;;;;;;;;4981459;28;20477;-62
2023/05/21 04:59:22;;;;;;;22.05;17.35;;;;;;;;;;4994936;28;20043;-62
2023/05/21 05:01:47;;;;;;;21.45;16.90;;;;;;;;;;4985760;28;20046;-58
2023/05/21 05:04:13;;;;;;;21.83;16.88;;;;;;;;;;4981571;28;20046;-60
2023/05/21 05:06:38;;;;;;;21.77;15.73;;;;;;;;;;4971390;28;20114;-60
2023/05/21 05:09:04;;;;;;;20.17;17.90;;;;;;;;;;4984896;28;20153;-61
2023/05/21 05:11:29;;;;;;;22.08;18.80;;;;;;;;;;4996164;28;20093;-63
2023/05/21 05:13:56;;;;;;;20.30;16.38;;;;;;;;;;4987203;28;20041;-62
2023/05/21 05:16:24;;;;;;;20.85;17.33;;;;;;;;;;4984284;28;20103;-62
2023/05/21 05:18:53;;;;;;;21.52;17.27;;;;;;;;;;4977535;28;20189;-62
2023/05/21 05:21:21;;;;;;;21.63;17.52;;;;;;;;;;4981438;28;20134;-62
2023/05/21 05:23:46;;;;;;;19.98;16.70;;;;;;;;;;4987528;28;20031;-62
2023/05/21 05:26:12;;;;;;;19.30;16.20;;;;;;;;;;4980428;28;20053;-62
2023/05/21 05:28:38;;;;;;;21.77;15.40;;;;;;;;;;4978898;28;20109;-62
2023/05/21 05:31:03;;;;;;;20.75;17.25;;;;;;;;;;4983899;28;20489;-61
2023/05/21 05:33:30;;;;;;;21.95;15.82;;;;;;;;;;4986137;28;20085;-63
2023/05/21 05:35:56;;;;;;;21.02;15.40;;;;;;;;;;4984056;28;20042;-63
2023/05/21 05:38:21;;;;;;;17.67;15.07;;;;;;;;;;4981524;28;20032;-61
2023/05/21 05:40:47;;;;;;;18.85;15.10;;;;;;;;;;4983262;28;20478;-62
2023/05/21 05:43:12;;;;;;;20.20;14.32;;;;;;;;;;4995065;28;20513;-61
2023/05/21 05:45:38;;;;;;;20.10;14.50;;;;;;;;;;4978789;28;20137;-62
2023/05/21 05:48:09;;;;;;;18.00;15.00;;;;;;;;;;4977511;28;20122;-62
2023/05/21 05:50:34;;;;;;;18.13;15.40;;;;;;;;;;4985267;28;20084;-62
2023/05/21 05:53:00;;;;;;;18.55;14.48;;;;;;;;;;4985438;28;20190;-62
2023/05/21 05:55:25;;;;;;;22.38;15.60;;;;;;;;;;4984003;28;20507;-62
2023/05/21 05:57:52;;;;;;;18.17;13.02;;;;;;;;;;4983112;28;20042;-61
2023/05/21 06:00:18;;;;;;;19.45;15.18;;;;;;;;;;4988785;28;20039;-61
2023/05/21 06:02:47;;;;;;;22.30;16.35;;;;;;;;;;4999128;28;20414;-61
2023/05/21 06:05:13;;;;;;;22.95;15.25;;;;;;;;;;4989508;28;20498;-61
2023/05/21 06:07:39;;;;;;;16.50;13.00;;;;;;;;;;4982930;28;20152;-61
2023/05/21 06:10:05;;;;;;;16.50;12.88;;;;;;;;;;4986615;28;20041;-60
2023/05/21 06:12:32;;;;;;;14.98;12.82;;;;;;;;;;4984118;28;20126;-62
2023/05/21 06:14:57;;;;;;;17.45;14.13;;;;;;;;;;4975352;28;20040;-63
2023/05/21 06:17:23;;;;;;;18.45;13.80;;;;;;;;;;4986784;28;20527;-60
2023/05/21 06:19:49;;;;;;;14.93;12.50;;;;;;;;;;4983052;28;20433;-61
2023/05/21 06:22:15;;;;;;;15.80;12.18;;;;;;;;;;4986354;28;20034;-60
2023/05/21 06:24:40;;;;;;;19.30;14.13;;;;;;;;;;4983741;28;20033;-61
2023/05/21 06:27:06;;;;;;;18.05;13.48;;;;;;;;;;4989999;28;20642;-61
2023/05/21 06:29:32;;;;;;;16.67;12.73;;;;;;;;;;4981389;28;20057;-60
2023/05/21 06:32:00;;;;;;;20.70;14.70;;;;;;;;;;4973732;28;20038;-61
2023/05/21 06:34:27;;;;;;;15.80;12.70;;;;;;;;;;4989203;28;20038;-60
2023/05/21 06:36:53;;;;;;;13.10;10.68;;;;;;;;;;4988177;28;20040;-61
2023/05/21 06:39:18;;;;;;;15.75;12.90;;;;;;;;;;4980539;28;20417;-60
2023/05/21 06:41:44;;;;;;;17.83;12.63;;;;;;;;;;5000160;28;20443;-62
2023/05/21 06:44:36;;;;;;;14.20;11.85;;;;;;;;;;4985745;28;20116;-62
2023/05/21 06:47:28;;;;;;;16.13;12.95;;;;;;;;;;4980348;28;20046;-62
2023/05/21 06:49:54;;;;;;;17.05;13.10;;;;;;;;;;4983728;28;20058;-61
2023/05/21 06:52:20;;;;;;;14.82;11.48;;;;;;;;;;4983754;28;20034;-60
2023/05/21 06:54:45;;;;;;;14.15;11.90;;;;;;;;;;4985041;28;20037;-61
2023/05/21 06:57:12;;;;;;;16.42;12.15;;;;;;;;;;4982387;28;20046;-62
2023/05/21 06:59:37;;;;;;;18.75;12.05;;;;;;;;;;4986127;28;20031;-61
2023/05/21 07:02:03;;;;;;;13.68;10.85;;;;;;;;;;4992113;28;20414;-61
2023/05/21 07:04:29;;;;;;;17.55;12.70;;;;;;;;;;4987266;28;20521;-61
2023/05/21 07:06:55;;;;;;;13.88;12.38;;;;;;;;;;4985598;28;20042;-60
2023/05/21 07:09:21;;;;;;;17.33;11.75;;;;;;;;;;4964704;28;20066;-61
2023/05/21 07:11:47;;;;;;;15.25;10.77;;;;;;;;;;4987669;28;20129;-62
2023/05/21 07:14:15;;;;;;;13.40;11.07;;;;;;;;;;4988239;28;20046;-61
2023/05/21 07:16:40;;;;;;;14.30;10.93;;;;;;;;;;4985915;28;20038;-62
2023/05/21 07:19:06;;;;;;;14.38;11.50;;;;;;;;;;4982484;28;20298;-60
2023/05/21 07:21:32;;;;;;;13.95;10.93;;;;;;;;;;4979690;28;20548;-60
2023/05/21 07:23:58;;;;;;;13.68;11.45;;;;;;;;;;4983355;28;20077;-61
2023/05/21 07:26:24;;;;;;;15.57;13.10;;;;;;;;;;4983534;28;20418;-61
2023/05/21 07:28:50;;;;;;;14.25;11.35;;;;;;;;;;4983533;28;20550;-62
2023/05/21 07:31:15;;;;;;;17.58;12.70;;;;;;;;;;4983047;28;20038;-62
2023/05/21 07:33:45;;;;;;;15.57;12.07;;;;;;;;;;4985067;28;20042;-60
2023/05/21 07:36:12;;;;;;;15.35;11.23;;;;;;;;;;4997724;28;20057;-61
2023/05/21 07:38:39;;;;;;;14.27;12.27;;;;;;;;;;4983136;28;20128;-60
2023/05/21 07:41:05;;;;;;;13.88;12.32;;;;;;;;;;4995300;28;20057;-60
2023/05/21 07:43:31;;;;;;;14.50;12.30;;;;;;;;;;4984340;28;20593;-61
2023/05/21 07:45:56;;;;;;;13.48;11.23;;;;;;;;;;4971221;28;20773;-63
2023/05/21 07:48:22;;;;;;;16.10;12.43;;;;;;;;;;4984760;28;20034;-61
2023/05/21 07:50:55;;;;;;;14.52;11.50;;;;;;;;;;4987103;28;20181;-61
2023/05/21 07:53:21;;;;;;;14.68;11.55;;;;;;;;;;4986612;28;20529;-62
2023/05/21 07:55:48;;;;;;;16.05;12.45;;;;;;;;;;4981262;28;20042;-61
2023/05/21 07:58:19;;;;;;;16.92;11.50;;;;;;;;;;4987216;28;20042;-61
2023/05/21 08:00:46;;;;;;;16.60;12.30;;;;;;;;;;4985926;28;20561;-61
2023/05/21 08:03:16;;;;;;;16.45;10.95;;;;;;;;;;4986210;28;20041;-62
2023/05/21 08:05:43;;;;;;;12.82;11.23;;;;;;;;;;4996760;28;20092;-62
2023/05/21 08:08:09;;;;;;;12.23;9.93;;;;;;;;;;4986763;28;20069;-61
2023/05/21 08:10:35;;;;;;;13.18;11.07;;;;;;;;;;4981697;28;20165;-62
2023/05/21 08:13:01;;;;;;;12.95;10.48;;;;;;;;;;4996984;28;20129;-61
2023/05/21 08:15:26;;;;;;;17.77;13.35;;;;;;;;;;4980873;28;20044;-62
2023/05/21 08:17:52;;;;;;;12.05;10.40;;;;;;;;;;4985662;28;20035;-61
2023/05/21 08:20:19;;;;;;;16.08;11.15;;;;;;;;;;4983172;28;20569;-62
2023/05/21 08:22:45;;;;;;;15.63;10.90;;;;;;;;;;4988061;28;20069;-62
2023/05/21 08:25:10;;;;;;;11.93;10.73;;;;;;;;;;4980961;28;20429;-62
2023/05/21 08:27:36;;;;;;;16.05;11.98;;;;;;;;;;4986744;28;20029;-62
2023/05/21 08:30:02;;;;;;;14.20;11.20;;;;;;;;;;4984528;28;20054;-62
2023/05/21 08:32:27;;;;;;;17.85;11.73;;;;;;;;;;4982904;28;20069;-63
2023/05/21 08:34:53;;;;;;;13.15;11.82;;;;;;;;;;4984057;28;20065;-61
2023/05/21 08:37:36;;;;;;;14.50;11.18;;;;;;;;;;4989214;28;20049;-62
2023/05/21 08:40:11;;;;;;;18.02;12.85;;;;;;;;;;4986133;28;20045;-62
2023/05/21 08:42:48;;;;;;;15.43;12.50;;;;;;;;;;4971365;28;20115;-60
2023/05/21 08:45:20;;;;;;;15.80;11.52;;;;;;;;;;4979660;28;20077;-62
2023/05/21 08:47:46;;;;;;;15.40;12.05;;;;;;;;;;4971786;28;20105;-61
2023/05/21 08:50:17;;;;;;;17.27;12.13;;;;;;;;;;4987722;28;20074;-61
2023/05/21 08:52:42;;;;;;;18.92;14.35;;;;;;;;;;4977449;28;20087;-61
2023/05/21 08:55:09;;;;;;;15.00;13.15;;;;;;;;;;4981362;28;20047;-68
2023/05/21 08:57:35;;;;;;;14.45;12.95;;;;;;;;;;4986292;28;20525;-62
2023/05/21 09:00:03;;;;;;;15.07;12.43;;;;;;;;;;4972190;28;20041;-61
2023/05/21 09:02:32;;;;;;;16.70;13.25;;;;;;;;;;4986473;28;20038;-63
2023/05/21 09:05:02;;;;;;;16.13;12.13;;;;;;;;;;4984870;28;20026;-61
2023/05/21 09:07:30;;;;;;;14.90;11.75;;;;;;;;;;4970668;28;20030;-62
2023/05/21 09:10:15;;;;;;;14.60;11.63;;;;;;;;;;4995308;28;20042;-62
2023/05/21 09:12:41;;;;;;;17.88;13.38;;;;;;;;;;4982831;28;20034;-62
2023/05/21 09:15:07;;;;;;;15.90;12.35;;;;;;;;;;4984296;28;20031;-62
2023/05/21 09:17:34;;;;;;;16.70;12.70;;;;;;;;;;4979086;28;20039;-62
2023/05/21 09:20:16;;;;;;;15.15;10.82;;;;;;;;;;4987921;28;20138;-62
2023/05/21 09:22:54;;;;;;;15.95;11.90;;;;;;;;;;4965040;28;20726;-62
2023/05/21 09:25:20;;;;;;;14.57;11.75;;;;;;;;;;4978199;28;20100;-60
2023/05/21 09:27:46;;;;;;;18.20;12.57;;;;;;;;;;4990939;28;20069;-61
2023/05/21 09:30:13;;;;;;;14.23;12.18;;;;;;;;;;4968605;28;20038;-62
2023/05/21 09:32:40;;;;;;;12.55;10.45;;;;;;;;;;4982416;28;20166;-62
2023/05/21 09:35:09;;;;;;;14.30;10.88;;;;;;;;;;4985492;28;20046;-61
2023/05/21 09:37:39;;;;;;;13.63;12.18;;;;;;;;;;4983006;28;20111;-62
2023/05/21 09:40:10;;;;;;;18.20;12.15;;;;;;;;;;4981870;28;20125;-63
2023/05/21 09:42:39;;;;;;;16.83;14.10;;;;;;;;;;4976574;28;20469;-63
2023/05/21 09:45:06;;;;;;;53.45;30.23;;;;;;;;;;4991284;28;20133;-61
2023/05/21 09:47:32;;;;;;;15.65;14.07;;;;;;;;;;4996502;28;20039;-62
2023/05/21 09:49:57;;;;;;;14.20;12.25;;;;;;;;;;4981379;28;20129;-62
2023/05/21 09:52:24;;;;;;;14.30;12.82;;;;;;;;;;4982730;28;20294;-63
2023/05/21 09:54:50;;;;;;;16.00;11.90;;;;;;;;;;4984186;28;20619;-62
2023/05/21 09:57:16;;;;;;;15.50;12.20;;;;;;;;;;4978687;28;20043;-63
2023/05/21 09:59:41;;;;;;;13.30;11.65;;;;;;;;;;4982365;28;20149;-62
2023/05/21 10:02:33;;;;;;;14.60;11.50;;;;;;;;;;4981348;28;20046;-63
2023/05/21 10:04:59;;;;;;;14.07;12.18;;;;;;;;;;4976253;28;20042;-62
2023/05/21 10:07:25;;;;;;;16.08;12.70;;;;;;;;;;4978284;28;20039;-63
2023/05/21 10:09:55;;;;;;;18.98;14.60;;;;;;;;;;4979894;28;20559;-62
2023/05/21 10:12:21;;;;;;;15.85;10.70;;;;;;;;;;4979594;28;20034;-62
2023/05/21 10:14:49;;;;;;;15.52;11.98;;;;;;;;;;4986593;28;20030;-63
2023/05/21 10:17:15;;;;;;;13.98;11.50;;;;;;;;;;4978152;28;20030;-63
2023/05/21 10:19:41;;;;;;;13.32;12.00;;;;;;;;;;4978299;28;20050;-63
2023/05/21 10:22:07;;;;;;;12.60;11.38;;;;;;;;;;4982126;28;20038;-64
2023/05/21 10:24:32;;;;;;;15.70;11.73;;;;;;;;;;4979202;28;20041;-64
2023/05/21 10:26:58;;;;;;;13.27;11.50;;;;;;;;;;4980301;28;20141;-63
2023/05/21 10:29:24;;;;;;;13.07;10.95;;;;;;;;;;4982902;28;20034;-63
2023/05/21 10:31:51;;;;;;;14.88;12.68;;;;;;;;;;4982457;28;20494;-63
2023/05/21 10:34:18;;;;;;;14.55;11.90;;;;;;;;;;4977639;28;20035;-61
2023/05/21 10:36:43;;;;;;;13.38;11.25;;;;;;;;;;4982902;28;20033;-63
2023/05/21 10:39:11;;;;;;;13.70;12.10;;;;;;;;;;4981127;28;20034;-63
2023/05/21 10:41:48;;;;;;;13.73;12.27;;;;;;;;;;4984606;28;20037;-61
2023/05/21 10:44:32;;;;;;;13.00;10.73;;;;;;;;;;4988832;28;20490;-61
2023/05/21 10:47:04;;;;;;;12.23;10.90;;;;;;;;;;4984469;28;20437;-62
2023/05/21 10:49:48;;;;;;;12.63;11.07;;;;;;;;;;4983827;28;20026;-62
2023/05/21 10:52:16;;;;;;;11.73;10.47;;;;;;;;;;4985684;28;20122;-62
2023/05/21 10:54:59;;;;;;;12.25;11.05;;;;;;;;;;4985177;28;20058;-62
2023/05/21 10:57:47;;;;;;;12.27;10.93;;;;;;;;;;4985079;28;20723;-66
2023/05/21 11:00:14;;;;;;;12.15;9.85;;;;;;;;;;4985180;28;20056;-62
2023/05/21 11:02:40;;;;;;;14.05;11.15;;;;;;;;;;4980690;28;20033;-63
2023/05/21 11:05:05;;;;;;;12.73;11.45;;;;;;;;;;4983005;28;20086;-63
2023/05/21 11:07:55;;;;;;;12.38;10.98;;;;;;;;;;4982794;28;20041;-65
2023/05/21 11:10:31;;;;;;;13.15;11.40;;;;;;;;;;4983150;28;20070;-64
2023/05/21 11:13:06;;;;;;;12.50;11.27;;;;;;;;;;4983921;28;20562;-67
2023/05/21 11:15:51;;;;;;;13.75;11.98;;;;;;;;;;4983837;28;20042;-62
2023/05/21 11:18:17;;;;;;;12.40;11.20;;;;;;;;;;4982374;28;20073;-63
2023/05/21 11:20:49;;;;;;;11.60;10.43;;;;;;;;;;4984112;28;20042;-63
2023/05/21 11:23:14;;;;;;;12.65;11.25;;;;;;;;;;4983480;28;20038;-63
2023/05/21 11:25:41;;;;;;;14.07;10.88;;;;;;;;;;4981305;28;20249;-63
2023/05/21 11:28:08;;;;;;;11.93;10.35;;;;;;;;;;4982444;28;20047;-62
2023/05/21 11:30:34;;;;;;;12.90;10.73;;;;;;;;;;4984366;28;20046;-63
2023/05/21 11:33:12;;;;;;;12.70;10.32;;;;;;;;;;4997874;28;20061;-64
2023/05/21 11:35:43;;;;;;;11.68;10.48;;;;;;;;;;4982325;28;20046;-63
2023/05/21 11:38:09;;;;;;;11.65;10.45;;;;;;;;;;4983044;28;20096;-64
2023/05/21 11:40:35;;;;;;;12.38;10.50;;;;;;;;;;4980818;28;20482;-62
2023/05/21 11:43:00;;;;;;;11.68;10.30;;;;;;;;;;4984666;28;20066;-62
2023/05/21 11:45:30;;;;;;;10.48;9.02;;;;;;;;;;4981955;28;20038;-64
2023/05/21 11:47:57;;;;;;;11.23;9.95;;;;;;;;;;4984658;28;20065;-64
2023/05/21 11:50:27;;;;;;;9.73;8.82;;;;;;;;;;4979995;28;20046;-63
2023/05/21 11:52:52;;;;;;;13.02;9.60;;;;;;;;;;4983650;28;20520;-65
2023/05/21 11:55:24;;;;;;;10.73;9.43;;;;;;;;;;4985292;28;20118;-64
2023/05/21 11:57:53;;;;;;;9.93;8.57;;;;;;;;;;4988546;28;20037;-64
2023/05/21 12:00:22;;;;;;;10.57;9.45;;;;;;;;;;4982649;28;20133;-64
2023/05/21 12:02:51;;;;;;;12.23;9.82;;;;;;;;;;4979213;28;20157;-63
2023/05/21 12:05:17;;;;;;;10.57;9.35;;;;;;;;;;4980252;28;20031;-64
2023/05/21 12:07:45;;;;;;;12.88;10.57;;;;;;;;;;4978028;28;20402;-63
2023/05/21 12:10:11;;;;;;;11.35;9.32;;;;;;;;;;4979635;28;20057;-64
2023/05/21 12:12:36;;;;;;;11.77;9.32;;;;;;;;;;4982780;28;20038;-64
2023/05/21 12:15:02;;;;;;;10.00;8.98;;;;;;;;;;4980892;28;20116;-64
2023/05/21 12:17:30;;;;;;;12.07;9.32;;;;;;;;;;4982126;28;20030;-63
2023/05/21 12:19:56;;;;;;;9.77;8.88;;;;;;;;;;4978179;28;20054;-64
2023/05/21 12:22:23;;;;;;;9.82;8.90;;;;;;;;;;4978817;28;20430;-64
2023/05/21 12:24:49;;;;;;;11.10;10.00;;;;;;;;;;4983762;28;20070;-65
2023/05/21 12:27:15;;;;;;;13.15;9.18;;;;;;;;;;4984195;28;20061;-65
2023/05/21 12:29:41;;;;;;;9.43;8.52;;;;;;;;;;4980465;28;20899;-65
2023/05/21 12:32:08;;;;;;;10.02;9.07;;;;;;;;;;4981293;28;20033;-65
2023/05/21 12:34:43;;;;;;;10.77;9.75;;;;;;;;;;4981860;28;20042;-64
2023/05/21 12:37:14;;;;;;;10.98;9.90;;;;;;;;;;4981356;28;20096;-64
2023/05/21 12:39:41;;;;;;;10.70;9.50;;;;;;;;;;4980319;28;20040;-65
2023/05/21 12:42:07;;;;;;;10.60;8.88;;;;;;;;;;4980682;28;20540;-67
2023/05/21 12:44:33;;;;;;;9.68;8.77;;;;;;;;;;4982227;28;20530;-64
2023/05/21 12:46:59;;;;;;;11.45;9.55;;;;;;;;;;4978637;28;20034;-63
2023/05/21 12:49:35;;;;;;;9.90;8.88;;;;;;;;;;4980903;28;20567;-65
2023/05/21 12:52:01;;;;;;;12.40;9.25;;;;;;;;;;4980056;28;20171;-67
2023/05/21 12:54:30;;;;;;;11.10;10.10;;;;;;;;;;4981985;28;20042;-60
2023/05/21 12:57:04;;;;;;;11.77;8.80;;;;;;;;;;4978803;28;20049;-60
2023/05/21 12:59:38;;;;;;;10.93;9.00;;;;;;;;;;4982847;28;20596;-64
2023/05/21 13:02:03;;;;;;;10.43;9.40;;;;;;;;;;4982438;28;20045;-60
2023/05/21 13:04:29;;;;;;;11.45;10.18;;;;;;;;;;4981563;28;20038;-61
2023/05/21 13:06:54;;;;;;;10.23;9.25;;;;;;;;;;4979876;28;20126;-60
2023/05/21 13:09:19;;;;;;;10.65;9.65;;;;;;;;;;4983893;28;20061;-61
2023/05/21 13:11:45;;;;;;;10.57;9.48;;;;;;;;;;4981028;28;20122;-62
2023/05/21 13:14:10;;;;;;;12.35;10.52;;;;;;;;;;4980127;28;20046;-61
2023/05/21 13:16:36;;;;;;;9.98;9.13;;;;;;;;;;4981626;28;20794;-61
2023/05/21 13:19:01;;;;;;;10.15;9.10;;;;;;;;;;4981011;28;20054;-61
2023/05/21 13:21:26;;;;;;;10.63;9.25;;;;;;;;;;4980597;28;20406;-61
2023/05/21 13:23:52;;;;;;;11.40;9.82;;;;;;;;;;4979861;28;20737;-62
2023/05/21 13:26:17;;;;;;;11.13;10.02;;;;;;;;;;4981215;28;20049;-61
2023/05/21 13:28:43;;;;;;;10.35;9.35;;;;;;;;;;4979891;28;20577;-60
2023/05/21 13:31:10;;;;;;;11.27;10.20;;;;;;;;;;4979345;28;20046;-60
2023/05/21 13:33:36;;;;;;;12.48;9.98;;;;;;;;;;4980197;28;20397;-60
2023/05/21 13:36:03;;;;;;;9.52;8.70;;;;;;;;;;4982124;28;20043;-60
2023/05/21 13:38:28;;;;;;;11.25;9.50;;;;;;;;;;4981135;28;20041;-59
2023/05/21 13:40:54;;;;;;;9.82;8.75;;;;;;;;;;4985162;28;20046;-60
2023/05/21 13:43:19;;;;;;;9.57;8.40;;;;;;;;;;4979676;28;20035;-61
2023/05/21 13:45:46;;;;;;;11.45;10.35;;;;;;;;;;4984347;28;20298;-60
2023/05/21 13:48:11;;;;;;;9.60;8.65;;;;;;;;;;4980691;28;20038;-61
2023/05/21 13:50:37;;;;;;;12.15;8.32;;;;;;;;;;4980837;28;20038;-61
2023/05/21 13:53:02;;;;;;;9.80;8.90;;;;;;;;;;4982383;28;20077;-61
2023/05/21 13:55:28;;;;;;;9.88;8.55;;;;;;;;;;4980127;28;20160;-61
2023/05/21 13:57:53;;;;;;;13.50;9.85;;;;;;;;;;4980286;28;20035;-60
2023/05/21 14:00:19;;;;;;;9.27;8.38;;;;;;;;;;4979605;28;20038;-66
2023/05/21 14:02:44;;;;;;;9.95;8.82;;;;;;;;;;4980504;28;20039;-61
2023/05/21 14:05:10;;;;;;;10.32;9.43;;;;;;;;;;4978406;28;20141;-60
2023/05/21 14:07:36;;;;;;;10.35;9.27;;;;;;;;;;4978241;28;20041;-61
2023/05/21 14:10:01;;;;;;;10.15;8.27;;;;;;;;;;4979162;28;20042;-61
2023/05/21 14:12:27;;;;;;;9.32;8.52;;;;;;;;;;4983518;28;20045;-62
2023/05/21 14:14:52;;;;;;;9.45;7.97;;;;;;;;;;4984251;28;20361;-62
2023/05/21 14:17:18;;;;;;;9.55;8.60;;;;;;;;;;4985623;28;20410;-60
2023/05/21 14:19:43;;;;;;;9.35;8.52;;;;;;;;;;4983936;28;20085;-60
2023/05/21 14:22:08;;;;;;;8.48;7.75;;;;;;;;;;4975244;28;20157;-61
2023/05/21 14:24:34;;;;;;;9.23;8.43;;;;;;;;;;4985341;28;20041;-60